Time;durP1;ratioP1;P1;durP2;ratioP2;P2;SDS_P1;SDS_P2;PMS_P1;PMS_P2;Temp;Humidity;BMP_temperature;BMP_pressure;BME280_temperature;BME280_humidity;BME280_pressure;Samples;Min_cycle;Max_cycle;Signal;HPM_P1;HPM_P2
2023/09/07 00:00:48;;;;;;;30.60;17.55;;;;;;;-147.95;100.00;58458.38;5097128;28;20053;-88
2023/09/07 00:03:17;;;;;;;34.97;19.05;;;;;;;-147.95;100.00;58458.38;5081682;28;20024;-88
2023/09/07 00:05:42;;;;;;;28.98;17.30;;;;;;;-147.95;100.00;58458.38;5099197;28;20507;-88
2023/09/07 00:08:07;;;;;;;33.35;17.40;;;;;;;-147.95;100.00;58458.38;5091709;28;20040;-88
2023/09/07 00:10:36;;;;;;;32.10;19.02;;;;;;;-147.95;100.00;58458.38;5077432;28;20158;-88
2023/09/07 00:13:02;;;;;;;29.90;18.27;;;;;;;-147.95;100.00;58458.38;5091810;28;20037;-88
2023/09/07 00:15:29;;;;;;;31.05;18.10;;;;;;;-147.95;100.00;58458.38;5086296;28;20024;-88
2023/09/07 00:17:56;;;;;;;32.50;17.40;;;;;;;-147.95;100.00;58458.38;5059873;28;20497;-88
2023/09/07 00:20:23;;;;;;;33.80;18.35;;;;;;;-147.95;100.00;58458.38;5090622;28;20063;-88
2023/09/07 00:22:49;;;;;;;31.05;18.23;;;;;;;-147.95;100.00;58458.38;5077210;28;20040;-88
2023/09/07 00:25:14;;;;;;;32.58;18.85;;;;;;;-147.95;100.00;58458.38;5080822;28;20036;-89
2023/09/07 00:27:40;;;;;;;26.45;17.90;;;;;;;-147.95;100.00;58458.38;5073580;28;20380;-89
2023/09/07 00:30:06;;;;;;;28.27;18.10;;;;;;;-147.95;100.00;58458.38;5060173;28;20032;-88
2023/09/07 00:32:38;;;;;;;30.75;18.02;;;;;;;-147.95;100.00;58458.38;5089340;28;20107;-88
2023/09/07 00:35:05;;;;;;;35.95;18.02;;;;;;;-147.95;100.00;58458.38;5086214;28;20068;-88
2023/09/07 00:37:32;;;;;;;30.45;20.35;;;;;;;-147.95;100.00;58458.38;5087514;28;20016;-88
2023/09/07 00:39:58;;;;;;;31.52;19.58;;;;;;;-147.95;100.00;58458.38;5059787;28;20024;-88
2023/09/07 00:42:24;;;;;;;29.70;20.08;;;;;;;-147.95;100.00;58458.38;5093744;28;20028;-88
2023/09/07 00:44:49;;;;;;;32.55;20.67;;;;;;;-147.95;100.00;58458.38;5086649;28;20040;-88
2023/09/07 00:47:16;;;;;;;33.35;20.38;;;;;;;-147.95;100.00;58458.38;5067292;28;20039;-88
2023/09/07 00:49:43;;;;;;;31.02;19.40;;;;;;;-147.95;100.00;58458.38;5082634;28;20039;-89
2023/09/07 00:52:11;;;;;;;34.90;20.08;;;;;;;-147.95;100.00;58458.38;5074635;28;20466;-89
2023/09/07 00:54:41;;;;;;;35.95;20.15;;;;;;;-147.95;100.00;58458.38;5059602;28;20095;-89
2023/09/07 00:57:07;;;;;;;31.45;20.25;;;;;;;-147.95;100.00;58458.38;5085393;28;20028;-87
2023/09/07 00:59:33;;;;;;;30.92;20.15;;;;;;;-147.95;100.00;58458.38;5086654;28;20055;-89
2023/09/07 01:01:58;;;;;;;38.10;20.55;;;;;;;-147.95;100.00;58458.38;5086856;28;20474;-81
2023/09/07 01:04:23;;;;;;;36.58;20.70;;;;;;;-147.95;100.00;58458.38;5063803;28;20089;-82
2023/09/07 01:07:28;;;;;;;34.40;21.00;;;;;;;-147.95;100.00;58458.38;5083487;28;20470;-82
2023/09/07 01:09:57;;;;;;;33.50;21.73;;;;;;;-147.95;100.00;58458.38;5084392;28;20043;-82
2023/09/07 01:12:23;;;;;;;40.65;22.15;;;;;;;-147.95;100.00;58458.38;5076222;28;20013;-82
2023/09/07 01:14:48;;;;;;;36.40;22.10;;;;;;;-147.95;100.00;58458.38;5064937;28;20564;-82
2023/09/07 01:17:14;;;;;;;36.25;21.30;;;;;;;-147.95;100.00;58458.38;5067096;28;20032;-82
2023/09/07 01:19:40;;;;;;;39.83;22.27;;;;;;;-147.95;100.00;58458.38;5084333;28;20615;-81
2023/09/07 01:22:10;;;;;;;35.40;21.55;;;;;;;-147.95;100.00;58458.38;5084758;28;20042;-81
2023/09/07 01:24:38;;;;;;;42.58;22.42;;;;;;;-147.95;100.00;58458.38;5049969;28;20066;-81
2023/09/07 01:27:05;;;;;;;39.00;22.50;;;;;;;-147.95;100.00;58458.38;5071267;28;20028;-82
2023/09/07 01:29:31;;;;;;;31.55;20.52;;;;;;;-147.95;100.00;58458.38;5083056;28;20530;-82
2023/09/07 01:31:57;;;;;;;40.15;22.90;;;;;;;-147.95;100.00;58458.38;5049318;28;20024;-82
2023/09/07 01:34:24;;;;;;;37.78;20.70;;;;;;;-147.95;100.00;58458.38;5081444;28;20032;-82
2023/09/07 01:36:49;;;;;;;34.35;22.38;;;;;;;-147.95;100.00;58458.38;5081443;28;20024;-82
2023/09/07 01:39:16;;;;;;;36.63;20.30;;;;;;;-147.95;100.00;58458.38;5069214;28;20043;-82
2023/09/07 01:41:42;;;;;;;38.47;22.38;;;;;;;-147.95;100.00;58458.38;5047512;28;20243;-82
2023/09/07 01:44:07;;;;;;;36.42;21.10;;;;;;;-147.95;100.00;58458.38;5080343;28;20047;-82
2023/09/07 01:46:33;;;;;;;35.78;21.65;;;;;;;-147.95;100.00;58458.38;5079632;28;20403;-82
2023/09/07 01:48:58;;;;;;;41.33;21.63;;;;;;;-147.95;100.00;58458.38;5054969;28;20313;-82
2023/09/07 01:51:27;;;;;;;37.97;20.73;;;;;;;-147.95;100.00;58458.38;5081928;28;20026;-82
2023/09/07 01:53:53;;;;;;;29.58;19.50;;;;;;;-147.95;100.00;58458.38;5084754;28;20024;-83
2023/09/07 01:56:18;;;;;;;32.17;19.10;;;;;;;-147.95;100.00;58458.38;5087813;28;20040;-81
2023/09/07 01:58:44;;;;;;;33.10;19.95;;;;;;;-147.95;100.00;58458.38;5077959;28;20034;-82
2023/09/07 02:01:21;;;;;;;28.13;18.40;;;;;;;-147.95;100.00;58458.38;5085093;28;20020;-82
2023/09/07 02:03:47;;;;;;;30.75;20.65;;;;;;;-147.95;100.00;58458.38;5087226;28;20107;-82
2023/09/07 02:06:13;;;;;;;32.22;18.98;;;;;;;-147.95;100.00;58458.38;5083702;28;20042;-82
2023/09/07 02:08:38;;;;;;;29.35;18.70;;;;;;;-147.95;100.00;58458.38;5079658;28;20038;-82
2023/09/07 02:11:05;;;;;;;35.05;19.73;;;;;;;-147.95;100.00;58458.38;5079930;28;20028;-82
2023/09/07 02:13:30;;;;;;;30.73;18.20;;;;;;;-147.95;100.00;58458.38;5072145;28;20039;-82
2023/09/07 02:15:56;;;;;;;34.42;19.13;;;;;;;-147.95;100.00;58458.38;5088353;28;20032;-82
2023/09/07 02:18:21;;;;;;;35.08;18.85;;;;;;;-147.95;100.00;58458.38;5065364;28;20406;-82
2023/09/07 02:20:47;;;;;;;31.65;19.42;;;;;;;-147.95;100.00;58458.38;5065672;28;20134;-82
2023/09/07 02:23:12;;;;;;;28.33;18.50;;;;;;;-147.95;100.00;58458.38;5082701;28;20034;-82
2023/09/07 02:25:37;;;;;;;25.60;17.17;;;;;;;-147.95;100.00;58458.38;5083946;28;20457;-82
2023/09/07 02:28:03;;;;;;;28.70;18.20;;;;;;;-147.95;100.00;58458.38;5049353;28;20039;-82
2023/09/07 02:30:29;;;;;;;30.25;18.23;;;;;;;-147.95;100.00;58458.38;5079963;28;20059;-81
2023/09/07 02:32:54;;;;;;;28.88;18.25;;;;;;;-147.95;100.00;58458.38;5073931;28;20032;-82
2023/09/07 02:35:19;;;;;;;32.47;17.35;;;;;;;-147.95;100.00;58458.38;5078044;28;20132;-82
2023/09/07 02:37:45;;;;;;;25.20;17.48;;;;;;;-147.95;100.00;58458.38;5088951;28;20036;-82
2023/09/07 02:40:11;;;;;;;28.77;18.00;;;;;;;-147.95;100.00;58458.38;5078971;28;20439;-82
2023/09/07 02:42:37;;;;;;;23.85;17.13;;;;;;;-147.95;100.00;58458.38;5085635;28;20565;-82
2023/09/07 02:45:02;;;;;;;27.52;17.40;;;;;;;-147.95;100.00;58458.38;5081885;28;20103;-82
2023/09/07 02:47:28;;;;;;;32.35;18.02;;;;;;;-147.95;100.00;58458.38;5083698;28;20501;-82
2023/09/07 02:49:53;;;;;;;25.95;17.17;;;;;;;-147.95;100.00;58458.38;5066099;28;20406;-82
2023/09/07 02:52:19;;;;;;;31.13;17.15;;;;;;;-147.95;100.00;58458.38;5082170;28;20475;-82
2023/09/07 02:54:44;;;;;;;28.88;17.38;;;;;;;-147.95;100.00;58458.38;5083898;28;20036;-82
2023/09/07 02:57:10;;;;;;;24.20;16.17;;;;;;;-147.95;100.00;58458.38;5089969;28;20058;-82
2023/09/07 02:59:35;;;;;;;26.75;16.67;;;;;;;-147.95;100.00;58458.38;5068525;28;20501;-82
2023/09/07 03:02:01;;;;;;;24.30;16.52;;;;;;;-147.95;100.00;58458.38;5054585;28;20025;-82
2023/09/07 03:04:26;;;;;;;26.58;16.70;;;;;;;-147.95;100.00;58458.38;5088073;28;20020;-82
2023/09/07 03:06:52;;;;;;;25.38;15.02;;;;;;;-147.95;100.00;58458.38;5057633;28;20070;-83
2023/09/07 03:09:17;;;;;;;24.52;15.05;;;;;;;-147.95;100.00;58458.38;5069644;28;20031;-82
2023/09/07 03:11:43;;;;;;;26.80;16.50;;;;;;;-147.95;100.00;58458.38;5069698;28;20762;-82
2023/09/07 03:14:08;;;;;;;24.35;15.98;;;;;;;-147.95;100.00;58458.38;5088259;28;20032;-82
2023/09/07 03:16:33;;;;;;;23.48;15.55;;;;;;;-147.95;100.00;58458.38;5066400;28;20060;-82
2023/09/07 03:18:59;;;;;;;28.65;15.05;;;;;;;-147.95;100.00;58458.38;5080475;28;20082;-82
2023/09/07 03:21:29;;;;;;;22.20;14.35;;;;;;;-147.95;100.00;58458.38;5084414;28;20051;-81
2023/09/07 03:23:58;;;;;;;26.65;15.40;;;;;;;-147.95;100.00;58458.38;5086839;28;20036;-82
2023/09/07 03:26:24;;;;;;;25.75;15.70;;;;;;;-147.95;100.00;58458.38;5071657;28;20028;-82
2023/09/07 03:28:50;;;;;;;27.20;14.77;;;;;;;-147.95;100.00;58458.38;5065850;28;20733;-82
2023/09/07 03:31:15;;;;;;;25.70;14.27;;;;;;;-147.95;100.00;58458.38;5071602;28;20051;-82
2023/09/07 03:33:40;;;;;;;23.38;14.27;;;;;;;-147.95;100.00;58458.38;5054220;28;20035;-82
2023/09/07 03:36:06;;;;;;;25.40;15.82;;;;;;;-147.95;100.00;58458.38;5069834;28;20589;-82
2023/09/07 03:38:31;;;;;;;26.00;14.80;;;;;;;-147.95;100.00;58458.38;5085977;28;20044;-81
2023/09/07 03:40:57;;;;;;;23.20;14.00;;;;;;;-147.95;100.00;58458.38;5083824;28;20039;-81
2023/09/07 03:43:22;;;;;;;26.60;14.35;;;;;;;-147.95;100.00;58458.38;5084285;28;20096;-81
2023/09/07 03:45:48;;;;;;;32.65;14.02;;;;;;;-147.95;100.00;58458.38;5086366;28;20028;-82
2023/09/07 03:48:13;;;;;;;23.02;14.48;;;;;;;-147.95;100.00;58458.38;5080201;28;20028;-81
2023/09/07 03:50:39;;;;;;;27.20;14.32;;;;;;;-147.95;100.00;58458.38;5085766;28;20077;-82
2023/09/07 03:53:04;;;;;;;27.70;14.15;;;;;;;-147.95;100.00;58458.38;5052727;28;20027;-81
2023/09/07 03:55:29;;;;;;;25.83;14.35;;;;;;;-147.95;100.00;58458.38;5081861;28;20024;-83
2023/09/07 03:57:55;;;;;;;33.03;14.93;;;;;;;-147.95;100.00;58458.38;5070504;28;20080;-82
2023/09/07 04:00:20;;;;;;;24.58;14.10;;;;;;;-147.95;100.00;58458.38;5085274;28;20032;-82
2023/09/07 04:02:46;;;;;;;19.88;13.70;;;;;;;-147.95;100.00;58458.38;5082643;28;20059;-82
2023/09/07 04:05:11;;;;;;;19.33;12.82;;;;;;;-147.95;100.00;58458.38;5086620;28;20059;-82
2023/09/07 04:07:40;;;;;;;34.20;14.68;;;;;;;-147.95;100.00;58458.38;5070293;28;20036;-86
2023/09/07 04:10:06;;;;;;;24.80;14.20;;;;;;;-147.95;100.00;58458.38;5066553;28;20024;-81
2023/09/07 04:12:33;;;;;;;26.48;15.50;;;;;;;-147.95;100.00;58458.38;5066710;28;20067;-80
2023/09/07 04:14:59;;;;;;;23.48;13.80;;;;;;;-147.95;100.00;58458.38;5079920;28;20557;-80
2023/09/07 04:17:24;;;;;;;21.02;14.65;;;;;;;-147.95;100.00;58458.38;5080718;28;20039;-80
2023/09/07 04:19:50;;;;;;;31.88;15.75;;;;;;;-147.95;100.00;58458.38;5070355;28;20538;-80
2023/09/07 04:22:16;;;;;;;28.30;15.27;;;;;;;-147.95;100.00;58458.38;5082085;28;20475;-80
2023/09/07 04:24:41;;;;;;;25.27;14.30;;;;;;;-147.95;100.00;58458.38;5058806;28;20048;-81
2023/09/07 04:27:06;;;;;;;25.38;15.93;;;;;;;-147.95;100.00;58458.38;5065093;28;20487;-80
2023/09/07 04:29:32;;;;;;;26.95;14.52;;;;;;;-147.95;100.00;58458.38;5085250;28;20092;-80
2023/09/07 04:31:57;;;;;;;25.38;15.23;;;;;;;-147.95;100.00;58458.38;5084391;28;20032;-81
2023/09/07 04:34:23;;;;;;;28.02;14.55;;;;;;;-147.95;100.00;58458.38;5083438;28;20127;-80
2023/09/07 04:36:48;;;;;;;25.27;14.27;;;;;;;-147.95;100.00;58458.38;5079015;28;20040;-80
2023/09/07 04:39:14;;;;;;;26.75;15.32;;;;;;;-147.95;100.00;58458.38;5079558;28;20115;-80
2023/09/07 04:41:40;;;;;;;31.48;15.73;;;;;;;-147.95;100.00;58458.38;5085070;28;20487;-80
2023/09/07 04:44:05;;;;;;;24.00;14.10;;;;;;;-147.95;100.00;58458.38;5084066;28;20448;-80
2023/09/07 04:46:31;;;;;;;26.67;14.50;;;;;;;-147.95;100.00;58458.38;5069297;28;20483;-80
2023/09/07 04:48:56;;;;;;;27.70;15.13;;;;;;;-147.95;100.00;58458.38;5081320;28;20036;-78
2023/09/07 04:51:23;;;;;;;28.65;15.05;;;;;;;-147.95;100.00;58458.38;5080555;28;20020;-80
2023/09/07 04:53:49;;;;;;;29.67;15.60;;;;;;;-147.95;100.00;58458.38;5054195;28;20384;-79
2023/09/07 04:56:16;;;;;;;28.85;15.18;;;;;;;-147.95;100.00;58458.38;5078800;28;20028;-79
2023/09/07 04:58:41;;;;;;;24.30;15.48;;;;;;;-147.95;100.00;58458.38;5082359;28;20042;-80
2023/09/07 05:01:08;;;;;;;28.02;16.50;;;;;;;-147.95;100.00;58458.38;5068390;28;20103;-80
2023/09/07 05:03:34;;;;;;;24.88;15.82;;;;;;;-147.95;100.00;58458.38;5067792;28;20069;-80
2023/09/07 05:06:00;;;;;;;26.55;15.15;;;;;;;-147.95;100.00;58458.38;5065861;28;21661;-79
2023/09/07 05:08:26;;;;;;;26.13;15.73;;;;;;;-147.95;100.00;58458.38;5085114;28;20032;-80
2023/09/07 05:10:59;;;;;;;31.08;16.05;;;;;;;-147.95;100.00;58458.38;5069132;28;20433;-80
2023/09/07 05:13:26;;;;;;;31.30;16.65;;;;;;;-147.95;100.00;58458.38;5078438;28;20606;-80
2023/09/07 05:15:52;;;;;;;29.15;17.20;;;;;;;-147.95;100.00;58458.38;5080346;28;20050;-80
2023/09/07 05:18:18;;;;;;;26.58;16.70;;;;;;;-147.95;100.00;58458.38;5081923;28;20035;-80
2023/09/07 05:20:44;;;;;;;28.92;17.50;;;;;;;-147.95;100.00;58458.38;5082039;28;20135;-79
2023/09/07 05:23:12;;;;;;;34.08;18.13;;;;;;;-147.95;100.00;58458.38;5076330;28;20098;-79
2023/09/07 05:25:46;;;;;;;31.23;17.90;;;;;;;-147.95;100.00;58458.38;5079927;28;20324;-80
2023/09/07 05:28:13;;;;;;;28.75;17.40;;;;;;;-147.95;100.00;58458.38;5082512;28;20096;-80
2023/09/07 05:30:39;;;;;;;29.83;17.42;;;;;;;-147.95;100.00;58458.38;5067358;28;20032;-79
2023/09/07 05:33:04;;;;;;;29.13;19.25;;;;;;;-147.95;100.00;58458.38;5080263;28;20051;-80
2023/09/07 05:35:32;;;;;;;38.35;16.77;;;;;;;-147.95;100.00;58458.38;5065869;28;20024;-79
2023/09/07 05:37:58;;;;;;;28.75;16.75;;;;;;;-147.95;100.00;58458.38;5063161;28;20455;-79
2023/09/07 05:40:23;;;;;;;31.17;15.77;;;;;;;-147.95;100.00;58458.38;5068009;28;20043;-85
2023/09/07 05:42:48;;;;;;;32.63;16.52;;;;;;;-147.95;100.00;58458.38;5068279;28;20028;-86
2023/09/07 05:45:14;;;;;;;28.40;16.10;;;;;;;-147.95;100.00;58458.38;5076067;28;20055;-86
2023/09/07 05:47:39;;;;;;;29.17;17.67;;;;;;;-147.95;100.00;58458.38;5064366;28;20057;-86
2023/09/07 05:50:05;;;;;;;35.55;17.85;;;;;;;-147.95;100.00;58458.38;5066206;28;20037;-86
2023/09/07 05:52:30;;;;;;;27.05;16.50;;;;;;;-147.95;100.00;58458.38;5081596;28;20501;-86
2023/09/07 05:54:56;;;;;;;30.33;15.88;;;;;;;-147.95;100.00;58458.38;5088089;28;20032;-88
2023/09/07 05:57:21;;;;;;;30.38;16.40;;;;;;;-147.95;100.00;58458.38;5067028;28;20046;-86
2023/09/07 05:59:46;;;;;;;30.23;16.75;;;;;;;-147.95;100.00;58458.38;5054209;28;20044;-92
2023/09/07 06:02:12;;;;;;;28.35;16.48;;;;;;;-147.95;100.00;58458.38;5055247;28;20032;-88
2023/09/07 06:04:37;;;;;;;32.15;15.63;;;;;;;-147.95;100.00;58458.38;5080103;28;20059;-87
2023/09/07 06:07:03;;;;;;;26.70;15.65;;;;;;;-147.95;100.00;58458.38;5066687;28;20032;-87
2023/09/07 06:09:29;;;;;;;35.83;17.23;;;;;;;-147.95;100.00;58458.38;5062241;28;20105;-85
2023/09/07 06:11:54;;;;;;;28.08;16.23;;;;;;;-147.95;100.00;58458.38;5082708;28;20512;-84
2023/09/07 06:14:21;;;;;;;32.47;14.95;;;;;;;-147.95;100.00;58458.38;5084990;28;20063;-86
2023/09/07 06:16:47;;;;;;;28.52;15.30;;;;;;;-147.95;100.00;58458.38;5080247;28;20486;-85
2023/09/07 06:19:12;;;;;;;23.75;14.30;;;;;;;-147.95;100.00;58458.38;5077661;28;20051;-87
2023/09/07 06:22:26;;;;;;;24.65;13.93;;;;;;;-147.95;100.00;58458.38;5087162;28;20395;-86
2023/09/07 06:24:32;;;;;;;24.63;13.18;;;;;;;-147.95;100.00;58458.38;5071442;28;20514;-85
2023/09/07 06:26:57;;;;;;;23.88;13.38;;;;;;;-147.95;100.00;58458.38;5080562;28;20035;-83
2023/09/07 06:29:23;;;;;;;22.83;13.45;;;;;;;-147.95;100.00;58458.38;5081524;28;20048;-84
2023/09/07 06:31:49;;;;;;;31.48;13.32;;;;;;;-147.95;100.00;58458.38;5078043;28;20489;-85
2023/09/07 06:34:15;;;;;;;25.77;11.77;;;;;;;-147.95;100.00;58458.38;5070954;28;20036;-85
2023/09/07 06:36:41;;;;;;;20.75;12.52;;;;;;;-147.95;100.00;58458.38;5063243;28;20036;-86
2023/09/07 06:39:06;;;;;;;24.67;14.00;;;;;;;-147.95;100.00;58458.38;5085800;28;20171;-86
2023/09/07 06:41:31;;;;;;;33.03;14.18;;;;;;;-147.95;100.00;58458.38;5085086;28;20033;-85
2023/09/07 06:43:57;;;;;;;27.73;12.60;;;;;;;-147.95;100.00;58458.38;5085580;28;20040;-85
2023/09/07 06:46:22;;;;;;;21.20;13.63;;;;;;;-147.95;100.00;58458.38;5052678;28;20055;-85
2023/09/07 06:48:48;;;;;;;26.95;13.98;;;;;;;-147.95;100.00;58458.38;5076791;28;20151;-85
2023/09/07 06:51:13;;;;;;;25.23;13.40;;;;;;;-147.95;100.00;58458.38;5056060;28;20394;-81
2023/09/07 06:53:41;;;;;;;21.92;12.32;;;;;;;-147.95;100.00;58458.38;5071806;28;20550;-81
2023/09/07 06:56:06;;;;;;;20.98;12.65;;;;;;;-147.95;100.00;58458.38;5051695;28;20081;-81
2023/09/07 06:58:34;;;;;;;23.20;13.00;;;;;;;-147.95;100.00;58458.38;5069023;28;20032;-81
2023/09/07 07:01:00;;;;;;;18.98;11.98;;;;;;;-147.95;100.00;58458.38;5050487;28;20078;-82
2023/09/07 07:03:27;;;;;;;24.33;12.77;;;;;;;-147.95;100.00;58458.38;5091769;28;20486;-80
2023/09/07 07:05:53;;;;;;;19.98;11.38;;;;;;;-147.95;100.00;58458.38;5080153;28;20052;-81
2023/09/07 07:08:18;;;;;;;21.55;11.93;;;;;;;-147.95;100.00;58458.38;5092203;28;20035;-81
2023/09/07 07:10:43;;;;;;;21.77;11.27;;;;;;;-147.95;100.00;58458.38;5065744;28;20025;-81
2023/09/07 07:13:09;;;;;;;16.77;11.45;;;;;;;-147.95;100.00;58458.38;5084505;28;20087;-81
2023/09/07 07:15:35;;;;;;;17.70;11.77;;;;;;;-147.95;100.00;58458.38;5087615;28;20045;-81
2023/09/07 07:18:01;;;;;;;18.10;11.02;;;;;;;-147.95;100.00;58458.38;5083659;28;20052;-81
2023/09/07 07:20:27;;;;;;;19.10;11.45;;;;;;;-147.95;100.00;58458.38;5085275;28;20125;-81
2023/09/07 07:22:52;;;;;;;19.75;11.65;;;;;;;-147.95;100.00;58458.38;5089848;28;20584;-79
2023/09/07 07:25:17;;;;;;;28.38;12.23;;;;;;;-147.95;100.00;58458.38;5072771;28;20032;-80
2023/09/07 07:27:43;;;;;;;21.55;13.07;;;;;;;-147.95;100.00;58458.38;5071480;28;20397;-79
2023/09/07 07:30:09;;;;;;;24.10;12.60;;;;;;;-147.95;100.00;58458.38;5082357;28;20036;-79
2023/09/07 07:32:34;;;;;;;23.27;12.93;;;;;;;-147.95;100.00;58458.38;5086191;28;20032;-79
2023/09/07 07:35:00;;;;;;;21.52;13.15;;;;;;;-147.95;100.00;58458.38;5086916;28;20077;-79
2023/09/07 07:37:25;;;;;;;22.77;12.15;;;;;;;-147.95;100.00;58458.38;5068527;28;20073;-80
2023/09/07 07:39:51;;;;;;;20.73;11.25;;;;;;;-147.95;100.00;58458.38;5084032;28;20074;-79
2023/09/07 07:42:18;;;;;;;18.00;10.10;;;;;;;-147.95;100.00;58458.38;5064119;28;20128;-79
2023/09/07 07:44:43;;;;;;;20.27;10.35;;;;;;;-147.95;100.00;58458.38;5088077;28;20036;-79
2023/09/07 07:47:09;;;;;;;18.42;9.63;;;;;;;-147.95;100.00;58458.38;5080907;28;20043;-78
2023/09/07 07:49:35;;;;;;;21.85;9.93;;;;;;;-147.95;100.00;58458.38;5085559;28;20035;-78
2023/09/07 07:52:01;;;;;;;23.70;9.82;;;;;;;-147.95;100.00;58458.38;5084881;28;20049;-79
2023/09/07 07:54:28;;;;;;;15.40;10.40;;;;;;;-147.95;100.00;58458.38;5081939;28;20036;-78
2023/09/07 07:56:53;;;;;;;16.48;10.77;;;;;;;-147.95;100.00;58458.38;5086427;28;20511;-80
2023/09/07 07:59:19;;;;;;;21.45;11.95;;;;;;;-147.95;100.00;58458.38;5091217;28;20117;-79
2023/09/07 08:01:44;;;;;;;17.70;10.73;;;;;;;-147.95;100.00;58458.38;5064469;28;20177;-79
2023/09/07 08:04:11;;;;;;;21.20;10.82;;;;;;;-147.95;100.00;58458.38;5082741;28;20040;-78
2023/09/07 08:06:36;;;;;;;17.73;10.98;;;;;;;-147.95;100.00;58458.38;5086504;28;20024;-79
2023/09/07 08:09:02;;;;;;;17.23;10.27;;;;;;;-147.95;100.00;58458.38;5093410;28;20032;-78
2023/09/07 08:11:28;;;;;;;15.30;9.43;;;;;;;-147.95;100.00;58458.38;5081214;28;20107;-79
2023/09/07 08:13:54;;;;;;;16.30;9.00;;;;;;;-147.95;100.00;58458.38;5088786;28;20544;-79
2023/09/07 08:16:20;;;;;;;18.33;10.73;;;;;;;-147.95;100.00;58458.38;5085669;28;20036;-79
2023/09/07 08:18:45;;;;;;;17.25;8.52;;;;;;;-147.95;100.00;58458.38;5066855;28;20071;-79
2023/09/07 08:21:14;;;;;;;14.77;8.05;;;;;;;-147.95;100.00;58458.38;5084835;28;20139;-79
2023/09/07 08:23:39;;;;;;;13.85;9.45;;;;;;;-147.95;100.00;58458.38;5086865;28;20029;-78
2023/09/07 08:26:05;;;;;;;11.90;7.80;;;;;;;-147.95;100.00;58458.38;5080460;28;20032;-79
2023/09/07 08:28:30;;;;;;;19.65;8.70;;;;;;;-147.95;100.00;58458.38;5064453;28;20024;-78
2023/09/07 08:30:58;;;;;;;14.35;7.68;;;;;;;-147.95;100.00;58458.38;5062272;28;20548;-78
2023/09/07 08:33:28;;;;;;;13.63;7.90;;;;;;;-147.95;100.00;58458.38;5083700;28;20054;-78
2023/09/07 08:35:55;;;;;;;1597.72;174.15;;;;;;;-147.95;100.00;58458.38;5085615;28;20046;-79
2023/09/07 08:38:24;;;;;;;16.58;6.32;;;;;;;-147.95;100.00;58458.38;5069819;28;20032;-79
2023/09/07 08:40:51;;;;;;;15.10;7.00;;;;;;;-147.95;100.00;58458.38;5084973;28;20084;-78
2023/09/07 08:43:20;;;;;;;12.38;6.80;;;;;;;-147.95;100.00;58458.38;5068897;28;20469;-79
2023/09/07 08:45:50;;;;;;;11.45;6.97;;;;;;;-147.95;100.00;58458.38;5086400;28;20032;-79
2023/09/07 08:48:18;;;;;;;10.77;5.97;;;;;;;-147.95;100.00;58458.38;5082723;28;20078;-79
2023/09/07 08:50:49;;;;;;;15.23;5.90;;;;;;;-147.95;100.00;58458.38;5078246;28;20074;-79
2023/09/07 08:53:18;;;;;;;25.88;6.40;;;;;;;-147.95;100.00;58458.38;5082289;28;20017;-79
2023/09/07 08:55:44;;;;;;;12.52;6.47;;;;;;;-147.95;100.00;58458.38;5082983;28;20032;-79
2023/09/07 08:58:09;;;;;;;11.23;6.38;;;;;;;-147.95;100.00;58458.38;5083484;28;20399;-79
2023/09/07 09:00:36;;;;;;;12.20;5.75;;;;;;;-147.95;100.00;58458.38;5080490;28;20105;-79
2023/09/07 09:03:01;;;;;;;13.38;6.05;;;;;;;-147.95;100.00;58458.38;5079977;28;20043;-79
2023/09/07 09:05:28;;;;;;;14.18;6.38;;;;;;;-147.95;100.00;58458.38;5085257;28;20038;-79
2023/09/07 09:08:04;;;;;;;10.35;5.00;;;;;;;-147.95;100.00;58458.38;5076193;28;20043;-79
2023/09/07 09:10:30;;;;;;;13.18;6.25;;;;;;;-147.95;100.00;58458.38;5082356;28;20020;-79
2023/09/07 09:12:56;;;;;;;10.95;6.20;;;;;;;-147.95;100.00;58458.38;5081139;28;20471;-79
2023/09/07 09:15:22;;;;;;;10.82;5.72;;;;;;;-147.95;100.00;58458.38;5082749;28;20024;-79
2023/09/07 09:17:48;;;;;;;8.35;5.78;;;;;;;-147.95;100.00;58458.38;5081960;28;20028;-79
2023/09/07 09:20:24;;;;;;;10.38;6.55;;;;;;;-147.95;100.00;58458.38;5083782;28;20533;-79
2023/09/07 09:22:54;;;;;;;13.90;5.78;;;;;;;-147.95;100.00;58458.38;5081213;28;20043;-79
2023/09/07 09:25:20;;;;;;;13.05;5.82;;;;;;;-147.95;100.00;58458.38;5082542;28;20495;-79
2023/09/07 09:27:47;;;;;;;11.45;5.65;;;;;;;-147.95;100.00;58458.38;5082894;28;20024;-79
2023/09/07 09:30:15;;;;;;;9.23;5.55;;;;;;;-147.95;100.00;58458.38;5082053;28;20411;-79
2023/09/07 09:32:41;;;;;;;10.73;5.88;;;;;;;-147.95;100.00;58458.38;5083057;28;20032;-80
2023/09/07 09:35:07;;;;;;;8.77;6.47;;;;;;;-147.95;100.00;58458.38;5063252;28;20494;-79
2023/09/07 09:37:33;;;;;;;10.52;5.10;;;;;;;-147.95;100.00;58458.38;5077306;28;20029;-79
2023/09/07 09:40:01;;;;;;;12.02;5.60;;;;;;;-147.95;100.00;58458.38;5086069;28;20020;-79
2023/09/07 09:42:27;;;;;;;8.73;5.40;;;;;;;-147.95;100.00;58458.38;5080976;28;20036;-79
2023/09/07 09:44:54;;;;;;;13.98;5.03;;;;;;;-147.95;100.00;58458.38;5082306;28;20151;-79
2023/09/07 09:47:21;;;;;;;9.00;5.15;;;;;;;-147.95;100.00;58458.38;5086447;28;20107;-79
2023/09/07 09:49:48;;;;;;;14.80;5.68;;;;;;;-147.95;100.00;58458.38;5081249;28;20066;-79
2023/09/07 09:52:15;;;;;;;10.60;4.65;;;;;;;-147.95;100.00;58458.38;5077839;28;20040;-79
2023/09/07 09:54:42;;;;;;;16.38;5.10;;;;;;;-147.95;100.00;58458.38;5082634;28;20032;-79
2023/09/07 09:57:07;;;;;;;12.90;5.10;;;;;;;-147.95;100.00;58458.38;5079055;28;20036;-79
2023/09/07 09:59:34;;;;;;;11.35;4.90;;;;;;;-147.95;100.00;58458.38;5078144;28;20109;-80
2023/09/07 10:02:01;;;;;;;13.00;5.20;;;;;;;-147.95;100.00;58458.38;5083973;28;20040;-80
2023/09/07 10:04:29;;;;;;;11.25;4.97;;;;;;;-147.95;100.00;58458.38;5083610;28;20073;-80
2023/09/07 10:07:07;;;;;;;13.25;5.18;;;;;;;-147.95;100.00;58458.38;5084540;28;20058;-80
2023/09/07 10:09:34;;;;;;;10.35;5.07;;;;;;;-147.95;100.00;58458.38;5078153;28;20552;-79
2023/09/07 10:12:01;;;;;;;11.20;5.18;;;;;;;-147.95;100.00;58458.38;5068398;28;20047;-80
2023/09/07 10:14:38;;;;;;;9.73;4.68;;;;;;;-147.95;100.00;58458.38;5080878;28;20025;-80
2023/09/07 10:17:04;;;;;;;9.63;5.03;;;;;;;-147.95;100.00;58458.38;5079766;28;20024;-80
2023/09/07 10:19:31;;;;;;;13.68;4.30;;;;;;;-147.95;100.00;58458.38;5077685;28;20040;-79
2023/09/07 10:21:57;;;;;;;9.25;4.72;;;;;;;-147.95;100.00;58458.38;5079842;28;20074;-78
2023/09/07 10:24:39;;;;;;;12.93;5.25;;;;;;;-147.95;100.00;58458.38;5082416;28;20508;-79
2023/09/07 10:27:12;;;;;;;11.88;5.15;;;;;;;-147.95;100.00;58458.38;5082193;28;20032;-79
2023/09/07 10:29:45;;;;;;;13.63;5.43;;;;;;;-147.95;100.00;58458.38;5084693;28;20036;-79
2023/09/07 10:32:12;;;;;;;10.82;5.30;;;;;;;-147.95;100.00;58458.38;5083422;28;20029;-79
2023/09/07 10:34:39;;;;;;;11.77;5.18;;;;;;;-147.95;100.00;58458.38;5083383;28;20034;-79
2023/09/07 10:37:05;;;;;;;11.38;4.88;;;;;;;-147.95;100.00;58458.38;5066568;28;20052;-79
2023/09/07 10:39:34;;;;;;;9.77;4.88;;;;;;;-147.95;100.00;58458.38;5087750;28;20020;-79
2023/09/07 10:41:59;;;;;;;11.77;5.28;;;;;;;-147.95;100.00;58458.38;5051164;28;20040;-79
2023/09/07 10:44:28;;;;;;;11.98;5.45;;;;;;;-147.95;100.00;58458.38;5073968;28;20025;-80
2023/09/07 10:46:54;;;;;;;76.43;10.13;;;;;;;-147.95;100.00;58458.38;5063973;28;20032;-79
2023/09/07 10:49:20;;;;;;;20.48;6.13;;;;;;;-147.95;100.00;58458.38;5064199;28;20039;-79
2023/09/07 10:51:46;;;;;;;10.18;5.68;;;;;;;-147.95;100.00;58458.38;5078172;28;20024;-79
2023/09/07 10:54:22;;;;;;;9.38;5.55;;;;;;;-147.95;100.00;58458.38;5076317;28;20035;-79